sensor_id;sensor_type;location;lat;lon;timestamp;P1;durP1;ratioP1;P2;durP2;ratioP2
39872;SDS011;25545;48.854;9.292;2022-08-03T00:00:24;3.78;;;3.30;;
39872;SDS011;25545;48.854;9.292;2022-08-03T00:02:51;4.28;;;3.20;;
39872;SDS011;25545;48.854;9.292;2022-08-03T00:05:18;3.53;;;3.22;;
39872;SDS011;25545;48.854;9.292;2022-08-03T00:07:45;4.68;;;3.60;;
39872;SDS011;25545;48.854;9.292;2022-08-03T00:10:14;3.35;;;3.03;;
39872;SDS011;25545;48.854;9.292;2022-08-03T00:12:42;3.65;;;3.25;;
39872;SDS011;25545;48.854;9.292;2022-08-03T00:15:08;6.75;;;3.63;;
39872;SDS011;25545;48.854;9.292;2022-08-03T00:17:41;4.05;;;3.33;;
39872;SDS011;25545;48.854;9.292;2022-08-03T00:20:19;3.25;;;2.97;;
39872;SDS011;25545;48.854;9.292;2022-08-03T00:22:46;8.65;;;3.05;;
39872;SDS011;25545;48.854;9.292;2022-08-03T00:25:13;4.15;;;3.75;;
39872;SDS011;25545;48.854;9.292;2022-08-03T00:27:39;7.72;;;3.45;;
39872;SDS011;25545;48.854;9.292;2022-08-03T00:30:06;4.20;;;3.75;;
39872;SDS011;25545;48.854;9.292;2022-08-03T00:32:33;4.72;;;3.20;;
39872;SDS011;25545;48.854;9.292;2022-08-03T00:35:00;9.63;;;3.03;;
39872;SDS011;25545;48.854;9.292;2022-08-03T00:37:34;6.13;;;3.22;;
39872;SDS011;25545;48.854;9.292;2022-08-03T00:40:07;3.83;;;3.47;;
39872;SDS011;25545;48.854;9.292;2022-08-03T00:42:45;4.50;;;3.17;;
39872;SDS011;25545;48.854;9.292;2022-08-03T00:45:13;3.45;;;3.15;;
39872;SDS011;25545;48.854;9.292;2022-08-03T00:47:39;4.43;;;3.30;;
39872;SDS011;25545;48.854;9.292;2022-08-03T00:50:06;4.45;;;3.85;;
39872;SDS011;25545;48.854;9.292;2022-08-03T00:52:33;3.53;;;3.22;;
39872;SDS011;25545;48.854;9.292;2022-08-03T00:55:00;3.65;;;3.17;;
39872;SDS011;25545;48.854;9.292;2022-08-03T00:57:31;3.60;;;3.30;;
39872;SDS011;25545;48.854;9.292;2022-08-03T00:59:58;5.72;;;3.42;;
39872;SDS011;25545;48.854;9.292;2022-08-03T01:02:26;4.68;;;3.10;;
39872;SDS011;25545;48.854;9.292;2022-08-03T01:04:54;7.75;;;3.08;;
39872;SDS011;25545;48.854;9.292;2022-08-03T01:21:19;4.90;;;3.38;;
39872;SDS011;25545;48.854;9.292;2022-08-03T01:23:56;4.03;;;3.60;;
39872;SDS011;25545;48.854;9.292;2022-08-03T01:32:19;5.53;;;3.50;;
39872;SDS011;25545;48.854;9.292;2022-08-03T01:35:19;5.97;;;3.70;;
39872;SDS011;25545;48.854;9.292;2022-08-03T01:37:52;4.80;;;3.63;;
39872;SDS011;25545;48.854;9.292;2022-08-03T01:40:23;5.55;;;3.95;;
39872;SDS011;25545;48.854;9.292;2022-08-03T01:42:51;3.55;;;3.25;;
39872;SDS011;25545;48.854;9.292;2022-08-03T01:45:20;4.97;;;3.65;;
39872;SDS011;25545;48.854;9.292;2022-08-03T01:47:47;3.85;;;3.42;;
39872;SDS011;25545;48.854;9.292;2022-08-03T01:50:15;4.30;;;3.20;;
39872;SDS011;25545;48.854;9.292;2022-08-03T01:52:45;4.28;;;3.95;;
39872;SDS011;25545;48.854;9.292;2022-08-03T01:55:13;4.05;;;3.75;;
39872;SDS011;25545;48.854;9.292;2022-08-03T01:57:43;6.10;;;2.97;;
39872;SDS011;25545;48.854;9.292;2022-08-03T02:00:30;3.47;;;3.17;;
39872;SDS011;25545;48.854;9.292;2022-08-03T02:02:58;4.68;;;3.10;;
39872;SDS011;25545;48.854;9.292;2022-08-03T02:05:24;3.50;;;3.20;;
39872;SDS011;25545;48.854;9.292;2022-08-03T02:07:52;5.25;;;3.28;;
39872;SDS011;25545;48.854;9.292;2022-08-03T02:10:19;3.45;;;2.88;;
39872;SDS011;25545;48.854;9.292;2022-08-03T02:13:01;5.50;;;3.70;;
39872;SDS011;25545;48.854;9.292;2022-08-03T02:15:29;3.92;;;3.40;;
39872;SDS011;25545;48.854;9.292;2022-08-03T02:17:57;6.38;;;3.60;;
39872;SDS011;25545;48.854;9.292;2022-08-03T02:20:25;6.97;;;3.40;;
39872;SDS011;25545;48.854;9.292;2022-08-03T02:22:52;3.60;;;3.20;;
39872;SDS011;25545;48.854;9.292;2022-08-03T02:25:19;9.02;;;4.00;;
39872;SDS011;25545;48.854;9.292;2022-08-03T02:27:50;5.80;;;3.38;;
39872;SDS011;25545;48.854;9.292;2022-08-03T02:32:49;4.03;;;3.17;;
39872;SDS011;25545;48.854;9.292;2022-08-03T02:35:17;3.15;;;2.95;;
39872;SDS011;25545;48.854;9.292;2022-08-03T02:37:48;4.43;;;3.78;;
39872;SDS011;25545;48.854;9.292;2022-08-03T02:40:16;4.70;;;3.67;;
39872;SDS011;25545;48.854;9.292;2022-08-03T02:42:45;4.90;;;3.38;;
39872;SDS011;25545;48.854;9.292;2022-08-03T02:45:12;3.80;;;3.30;;
39872;SDS011;25545;48.854;9.292;2022-08-03T02:47:40;4.22;;;3.50;;
39872;SDS011;25545;48.854;9.292;2022-08-03T02:50:20;6.53;;;3.40;;
39872;SDS011;25545;48.854;9.292;2022-08-03T02:52:48;4.45;;;3.63;;
39872;SDS011;25545;48.854;9.292;2022-08-03T02:55:15;4.70;;;4.18;;
39872;SDS011;25545;48.854;9.292;2022-08-03T02:57:42;5.47;;;3.58;;
39872;SDS011;25545;48.854;9.292;2022-08-03T03:00:10;4.97;;;3.70;;
39872;SDS011;25545;48.854;9.292;2022-08-03T03:02:44;7.97;;;3.85;;
39872;SDS011;25545;48.854;9.292;2022-08-03T03:05:11;3.67;;;3.38;;
39872;SDS011;25545;48.854;9.292;2022-08-03T03:07:58;5.25;;;4.10;;
39872;SDS011;25545;48.854;9.292;2022-08-03T03:10:26;3.90;;;3.60;;
39872;SDS011;25545;48.854;9.292;2022-08-03T03:12:54;5.85;;;3.47;;
39872;SDS011;25545;48.854;9.292;2022-08-03T03:15:32;4.55;;;3.95;;
39872;SDS011;25545;48.854;9.292;2022-08-03T03:18:06;4.15;;;3.60;;
39872;SDS011;25545;48.854;9.292;2022-08-03T03:20:35;4.63;;;4.22;;
39872;SDS011;25545;48.854;9.292;2022-08-03T03:23:02;6.70;;;3.85;;
39872;SDS011;25545;48.854;9.292;2022-08-03T03:25:31;3.85;;;3.38;;
39872;SDS011;25545;48.854;9.292;2022-08-03T03:27:59;4.05;;;3.65;;
39872;SDS011;25545;48.854;9.292;2022-08-03T03:30:26;8.35;;;3.67;;
39872;SDS011;25545;48.854;9.292;2022-08-03T03:32:53;4.07;;;3.67;;
39872;SDS011;25545;48.854;9.292;2022-08-03T03:35:20;4.30;;;3.97;;
39872;SDS011;25545;48.854;9.292;2022-08-03T03:37:47;3.85;;;3.55;;
39872;SDS011;25545;48.854;9.292;2022-08-03T03:40:13;4.05;;;3.45;;
39872;SDS011;25545;48.854;9.292;2022-08-03T03:42:40;5.82;;;4.05;;
39872;SDS011;25545;48.854;9.292;2022-08-03T03:45:07;5.78;;;3.90;;
39872;SDS011;25545;48.854;9.292;2022-08-03T03:47:34;5.60;;;4.63;;
39872;SDS011;25545;48.854;9.292;2022-08-03T03:50:02;6.82;;;4.10;;
39872;SDS011;25545;48.854;9.292;2022-08-03T03:52:30;5.35;;;3.75;;
39872;SDS011;25545;48.854;9.292;2022-08-03T03:54:57;4.82;;;3.80;;
39872;SDS011;25545;48.854;9.292;2022-08-03T03:57:27;4.28;;;3.88;;
39872;SDS011;25545;48.854;9.292;2022-08-03T03:59:54;4.78;;;3.85;;
39872;SDS011;25545;48.854;9.292;2022-08-03T04:02:21;7.70;;;4.50;;
39872;SDS011;25545;48.854;9.292;2022-08-03T04:04:47;5.05;;;4.20;;
39872;SDS011;25545;48.854;9.292;2022-08-03T04:07:34;4.78;;;3.95;;
39872;SDS011;25545;48.854;9.292;2022-08-03T04:10:26;5.90;;;4.00;;
39872;SDS011;25545;48.854;9.292;2022-08-03T04:13:12;6.45;;;4.28;;
39872;SDS011;25545;48.854;9.292;2022-08-03T04:15:39;5.63;;;3.67;;
39872;SDS011;25545;48.854;9.292;2022-08-03T04:18:10;5.13;;;3.55;;
39872;SDS011;25545;48.854;9.292;2022-08-03T04:23:05;4.18;;;3.72;;
39872;SDS011;25545;48.854;9.292;2022-08-03T04:25:41;5.97;;;4.15;;
39872;SDS011;25545;48.854;9.292;2022-08-03T04:28:08;7.43;;;4.07;;
39872;SDS011;25545;48.854;9.292;2022-08-03T04:30:55;4.68;;;4.28;;
39872;SDS011;25545;48.854;9.292;2022-08-03T04:33:22;4.63;;;4.22;;
39872;SDS011;25545;48.854;9.292;2022-08-03T04:35:54;8.32;;;3.95;;
39872;SDS011;25545;48.854;9.292;2022-08-03T04:38:31;5.07;;;3.60;;
39872;SDS011;25545;48.854;9.292;2022-08-03T04:41:02;4.50;;;4.10;;
39872;SDS011;25545;48.854;9.292;2022-08-03T04:43:30;7.35;;;4.03;;
39872;SDS011;25545;48.854;9.292;2022-08-03T04:45:58;4.35;;;3.92;;
39872;SDS011;25545;48.854;9.292;2022-08-03T04:48:26;5.47;;;3.70;;
39872;SDS011;25545;48.854;9.292;2022-08-03T04:50:52;5.35;;;4.45;;
39872;SDS011;25545;48.854;9.292;2022-08-03T04:53:19;7.88;;;4.07;;
39872;SDS011;25545;48.854;9.292;2022-08-03T04:55:47;4.65;;;3.60;;
39872;SDS011;25545;48.854;9.292;2022-08-03T04:58:13;6.15;;;3.92;;
39872;SDS011;25545;48.854;9.292;2022-08-03T05:00:40;4.57;;;3.65;;
39872;SDS011;25545;48.854;9.292;2022-08-03T05:03:07;4.22;;;3.80;;
39872;SDS011;25545;48.854;9.292;2022-08-03T05:05:49;4.67;;;3.83;;
39872;SDS011;25545;48.854;9.292;2022-08-03T05:08:16;4.63;;;4.20;;
39872;SDS011;25545;48.854;9.292;2022-08-03T05:10:46;4.93;;;3.85;;
39872;SDS011;25545;48.854;9.292;2022-08-03T05:13:13;4.60;;;4.20;;
39872;SDS011;25545;48.854;9.292;2022-08-03T05:15:39;6.07;;;4.25;;
39872;SDS011;25545;48.854;9.292;2022-08-03T05:18:08;6.30;;;4.30;;
39872;SDS011;25545;48.854;9.292;2022-08-03T05:20:39;5.95;;;3.97;;
39872;SDS011;25545;48.854;9.292;2022-08-03T05:23:06;5.43;;;3.85;;
39872;SDS011;25545;48.854;9.292;2022-08-03T05:25:33;5.47;;;4.18;;
39872;SDS011;25545;48.854;9.292;2022-08-03T05:27:59;4.20;;;3.55;;
39872;SDS011;25545;48.854;9.292;2022-08-03T05:30:26;4.93;;;4.40;;
39872;SDS011;25545;48.854;9.292;2022-08-03T05:32:59;4.95;;;3.95;;
39872;SDS011;25545;48.854;9.292;2022-08-03T05:35:27;9.45;;;3.83;;
39872;SDS011;25545;48.854;9.292;2022-08-03T05:38:14;4.15;;;3.75;;
39872;SDS011;25545;48.854;9.292;2022-08-03T05:40:53;4.20;;;3.80;;
39872;SDS011;25545;48.854;9.292;2022-08-03T05:43:40;4.63;;;3.90;;
39872;SDS011;25545;48.854;9.292;2022-08-03T05:46:07;4.38;;;3.92;;
39872;SDS011;25545;48.854;9.292;2022-08-03T05:48:38;4.07;;;3.67;;
39872;SDS011;25545;48.854;9.292;2022-08-03T05:51:05;3.90;;;3.53;;
39872;SDS011;25545;48.854;9.292;2022-08-03T05:53:36;4.80;;;4.30;;
39872;SDS011;25545;48.854;9.292;2022-08-03T05:56:03;7.07;;;4.10;;
39872;SDS011;25545;48.854;9.292;2022-08-03T05:58:44;4.53;;;4.05;;
39872;SDS011;25545;48.854;9.292;2022-08-03T06:01:12;3.92;;;3.47;;
39872;SDS011;25545;48.854;9.292;2022-08-03T06:03:40;4.75;;;3.45;;
39872;SDS011;25545;48.854;9.292;2022-08-03T06:06:07;3.10;;;2.80;;
39872;SDS011;25545;48.854;9.292;2022-08-03T06:08:33;5.10;;;3.20;;
39872;SDS011;25545;48.854;9.292;2022-08-03T06:11:00;3.35;;;3.05;;
39872;SDS011;25545;48.854;9.292;2022-08-03T06:13:27;3.78;;;3.10;;
39872;SDS011;25545;48.854;9.292;2022-08-03T06:15:53;3.58;;;3.28;;
39872;SDS011;25545;48.854;9.292;2022-08-03T06:18:20;5.88;;;3.28;;
39872;SDS011;25545;48.854;9.292;2022-08-03T06:20:47;3.55;;;3.10;;
39872;SDS011;25545;48.854;9.292;2022-08-03T06:23:15;3.90;;;3.50;;
39872;SDS011;25545;48.854;9.292;2022-08-03T06:25:43;3.15;;;2.85;;
39872;SDS011;25545;48.854;9.292;2022-08-03T06:28:10;3.92;;;3.05;;
39872;SDS011;25545;48.854;9.292;2022-08-03T06:30:58;5.07;;;3.17;;
39872;SDS011;25545;48.854;9.292;2022-08-03T06:33:24;4.30;;;2.92;;
39872;SDS011;25545;48.854;9.292;2022-08-03T06:36:11;6.35;;;3.47;;
39872;SDS011;25545;48.854;9.292;2022-08-03T06:38:38;4.03;;;3.63;;
39872;SDS011;25545;48.854;9.292;2022-08-03T06:41:05;4.68;;;2.53;;
39872;SDS011;25545;48.854;9.292;2022-08-03T06:43:32;3.20;;;2.90;;
39872;SDS011;25545;48.854;9.292;2022-08-03T06:46:03;4.97;;;3.40;;
39872;SDS011;25545;48.854;9.292;2022-08-03T06:48:33;3.35;;;2.75;;
39872;SDS011;25545;48.854;9.292;2022-08-03T06:50:59;5.35;;;3.13;;
39872;SDS011;25545;48.854;9.292;2022-08-03T06:53:26;5.53;;;3.13;;
39872;SDS011;25545;48.854;9.292;2022-08-03T06:55:52;4.70;;;2.85;;
39872;SDS011;25545;48.854;9.292;2022-08-03T06:58:20;5.85;;;2.67;;
39872;SDS011;25545;48.854;9.292;2022-08-03T07:00:47;3.05;;;2.70;;
39872;SDS011;25545;48.854;9.292;2022-08-03T07:03:14;5.47;;;2.90;;
39872;SDS011;25545;48.854;9.292;2022-08-03T07:05:41;4.47;;;3.22;;
39872;SDS011;25545;48.854;9.292;2022-08-03T07:08:09;6.20;;;3.00;;
39872;SDS011;25545;48.854;9.292;2022-08-03T07:10:35;2.55;;;2.35;;
39872;SDS011;25545;48.854;9.292;2022-08-03T07:13:02;5.07;;;2.67;;
39872;SDS011;25545;48.854;9.292;2022-08-03T07:15:29;2.55;;;2.30;;
39872;SDS011;25545;48.854;9.292;2022-08-03T07:18:16;3.53;;;2.20;;
39872;SDS011;25545;48.854;9.292;2022-08-03T07:20:55;4.28;;;2.45;;
39872;SDS011;25545;48.854;9.292;2022-08-03T07:23:23;3.17;;;2.83;;
39872;SDS011;25545;48.854;9.292;2022-08-03T07:25:50;8.90;;;2.80;;
39872;SDS011;25545;48.854;9.292;2022-08-03T07:28:17;5.32;;;2.58;;
39872;SDS011;25545;48.854;9.292;2022-08-03T07:30:43;3.40;;;2.70;;
39872;SDS011;25545;48.854;9.292;2022-08-03T07:33:10;6.75;;;2.70;;
39872;SDS011;25545;48.854;9.292;2022-08-03T07:35:37;3.80;;;2.55;;
39872;SDS011;25545;48.854;9.292;2022-08-03T07:38:04;6.88;;;2.75;;
39872;SDS011;25545;48.854;9.292;2022-08-03T07:40:31;6.13;;;2.80;;
39872;SDS011;25545;48.854;9.292;2022-08-03T07:42:58;2.90;;;2.50;;
39872;SDS011;25545;48.854;9.292;2022-08-03T07:45:24;8.27;;;2.40;;
39872;SDS011;25545;48.854;9.292;2022-08-03T07:47:52;5.50;;;2.83;;
39872;SDS011;25545;48.854;9.292;2022-08-03T07:50:19;3.38;;;2.78;;
39872;SDS011;25545;48.854;9.292;2022-08-03T07:52:47;4.78;;;2.33;;
39872;SDS011;25545;48.854;9.292;2022-08-03T07:55:15;3.47;;;2.85;;
39872;SDS011;25545;48.854;9.292;2022-08-03T07:57:42;2.38;;;2.15;;
39872;SDS011;25545;48.854;9.292;2022-08-03T08:00:18;3.92;;;2.53;;
39872;SDS011;25545;48.854;9.292;2022-08-03T08:02:45;3.63;;;2.40;;
39872;SDS011;25545;48.854;9.292;2022-08-03T08:05:12;3.20;;;2.42;;
39872;SDS011;25545;48.854;9.292;2022-08-03T08:07:39;4.82;;;2.38;;
39872;SDS011;25545;48.854;9.292;2022-08-03T08:10:06;5.10;;;2.75;;
39872;SDS011;25545;48.854;9.292;2022-08-03T08:12:35;8.68;;;3.35;;
39872;SDS011;25545;48.854;9.292;2022-08-03T08:15:04;4.13;;;2.25;;
39872;SDS011;25545;48.854;9.292;2022-08-03T08:17:40;4.13;;;2.40;;
39872;SDS011;25545;48.854;9.292;2022-08-03T08:20:09;4.60;;;2.60;;
39872;SDS011;25545;48.854;9.292;2022-08-03T08:22:37;2.58;;;2.08;;
39872;SDS011;25545;48.854;9.292;2022-08-03T08:25:05;5.40;;;2.53;;
39872;SDS011;25545;48.854;9.292;2022-08-03T08:27:33;4.57;;;2.28;;
39872;SDS011;25545;48.854;9.292;2022-08-03T08:30:27;2.45;;;2.22;;
39872;SDS011;25545;48.854;9.292;2022-08-03T08:33:03;2.20;;;1.90;;
39872;SDS011;25545;48.854;9.292;2022-08-03T08:35:30;2.80;;;1.80;;
39872;SDS011;25545;48.854;9.292;2022-08-03T08:37:58;10.25;;;1.92;;
39872;SDS011;25545;48.854;9.292;2022-08-03T08:40:30;6.30;;;1.85;;
39872;SDS011;25545;48.854;9.292;2022-08-03T08:42:57;2.85;;;1.80;;
39872;SDS011;25545;48.854;9.292;2022-08-03T08:45:24;3.13;;;1.85;;
39872;SDS011;25545;48.854;9.292;2022-08-03T08:47:51;2.00;;;1.90;;
39872;SDS011;25545;48.854;9.292;2022-08-03T08:50:26;3.10;;;2.03;;
39872;SDS011;25545;48.854;9.292;2022-08-03T08:52:53;1.35;;;1.25;;
39872;SDS011;25545;48.854;9.292;2022-08-03T08:55:21;3.65;;;1.40;;
39872;SDS011;25545;48.854;9.292;2022-08-03T08:57:51;3.67;;;1.73;;
39872;SDS011;25545;48.854;9.292;2022-08-03T09:00:27;4.93;;;2.00;;
39872;SDS011;25545;48.854;9.292;2022-08-03T09:02:53;1.92;;;1.67;;
39872;SDS011;25545;48.854;9.292;2022-08-03T09:05:20;2.38;;;1.90;;
39872;SDS011;25545;48.854;9.292;2022-08-03T09:08:07;1.55;;;1.35;;
39872;SDS011;25545;48.854;9.292;2022-08-03T09:10:34;2.63;;;1.75;;
39872;SDS011;25545;48.854;9.292;2022-08-03T09:13:00;2.50;;;1.60;;
39872;SDS011;25545;48.854;9.292;2022-08-03T09:15:31;2.13;;;1.45;;
39872;SDS011;25545;48.854;9.292;2022-08-03T09:17:59;1.80;;;1.67;;
39872;SDS011;25545;48.854;9.292;2022-08-03T09:20:27;1.52;;;1.38;;
39872;SDS011;25545;48.854;9.292;2022-08-03T09:22:57;3.90;;;1.58;;
39872;SDS011;25545;48.854;9.292;2022-08-03T09:28:15;2.15;;;1.35;;
39872;SDS011;25545;48.854;9.292;2022-08-03T09:31:03;3.35;;;1.63;;
39872;SDS011;25545;48.854;9.292;2022-08-03T09:33:29;1.60;;;1.50;;
39872;SDS011;25545;48.854;9.292;2022-08-03T09:36:01;2.72;;;1.45;;
39872;SDS011;25545;48.854;9.292;2022-08-03T09:38:28;2.55;;;1.58;;
39872;SDS011;25545;48.854;9.292;2022-08-03T09:40:55;2.30;;;1.15;;
39872;SDS011;25545;48.854;9.292;2022-08-03T09:43:26;1.50;;;1.40;;
39872;SDS011;25545;48.854;9.292;2022-08-03T09:46:01;1.58;;;1.42;;
39872;SDS011;25545;48.854;9.292;2022-08-03T09:48:29;1.63;;;1.40;;
39872;SDS011;25545;48.854;9.292;2022-08-03T09:50:57;2.22;;;1.40;;
39872;SDS011;25545;48.854;9.292;2022-08-03T09:53:44;4.85;;;1.70;;
39872;SDS011;25545;48.854;9.292;2022-08-03T09:56:36;1.27;;;1.17;;
39872;SDS011;25545;48.854;9.292;2022-08-03T09:59:06;1.58;;;1.48;;
39872;SDS011;25545;48.854;9.292;2022-08-03T10:01:33;1.67;;;1.30;;
39872;SDS011;25545;48.854;9.292;2022-08-03T10:04:01;1.63;;;1.15;;
39872;SDS011;25545;48.854;9.292;2022-08-03T10:06:30;1.77;;;1.45;;
39872;SDS011;25545;48.854;9.292;2022-08-03T10:09:04;1.77;;;1.30;;
39872;SDS011;25545;48.854;9.292;2022-08-03T10:11:34;2.78;;;1.38;;
39872;SDS011;25545;48.854;9.292;2022-08-03T10:14:08;1.50;;;1.40;;
39872;SDS011;25545;48.854;9.292;2022-08-03T10:16:37;1.83;;;1.13;;
39872;SDS011;25545;48.854;9.292;2022-08-03T10:19:05;3.00;;;1.55;;
39872;SDS011;25545;48.854;9.292;2022-08-03T10:21:33;1.60;;;1.50;;
39872;SDS011;25545;48.854;9.292;2022-08-03T10:24:02;2.90;;;1.42;;
39872;SDS011;25545;48.854;9.292;2022-08-03T10:26:37;1.63;;;1.42;;
39872;SDS011;25545;48.854;9.292;2022-08-03T10:29:21;1.33;;;1.23;;
39872;SDS011;25545;48.854;9.292;2022-08-03T10:31:50;1.80;;;1.70;;
39872;SDS011;25545;48.854;9.292;2022-08-03T10:34:24;2.22;;;1.50;;
39872;SDS011;25545;48.854;9.292;2022-08-03T10:36:55;2.10;;;1.52;;
39872;SDS011;25545;48.854;9.292;2022-08-03T10:41:53;2.47;;;1.58;;
39872;SDS011;25545;48.854;9.292;2022-08-03T10:44:22;2.67;;;1.30;;
39872;SDS011;25545;48.854;9.292;2022-08-03T10:46:51;1.35;;;1.20;;
39872;SDS011;25545;48.854;9.292;2022-08-03T10:50:47;2.45;;;1.40;;
39872;SDS011;25545;48.854;9.292;2022-08-03T10:54:03;2.25;;;1.67;;
39872;SDS011;25545;48.854;9.292;2022-08-03T11:02:11;3.80;;;1.30;;
39872;SDS011;25545;48.854;9.292;2022-08-03T11:04:42;6.75;;;1.73;;
39872;SDS011;25545;48.854;9.292;2022-08-03T11:07:19;3.00;;;1.67;;
39872;SDS011;25545;48.854;9.292;2022-08-03T11:10:48;1.77;;;1.40;;
39872;SDS011;25545;48.854;9.292;2022-08-03T11:13:16;4.00;;;1.50;;
39872;SDS011;25545;48.854;9.292;2022-08-03T11:16:00;1.65;;;1.55;;
39872;SDS011;25545;48.854;9.292;2022-08-03T11:18:35;2.55;;;1.30;;
39872;SDS011;25545;48.854;9.292;2022-08-03T11:21:02;1.80;;;1.55;;
39872;SDS011;25545;48.854;9.292;2022-08-03T11:27:46;6.50;;;1.73;;
39872;SDS011;25545;48.854;9.292;2022-08-03T11:30:52;3.20;;;1.60;;
39872;SDS011;25545;48.854;9.292;2022-08-03T11:33:30;4.03;;;1.65;;
39872;SDS011;25545;48.854;9.292;2022-08-03T11:35:58;2.25;;;1.42;;
39872;SDS011;25545;48.854;9.292;2022-08-03T11:41:42;1.60;;;1.50;;
39872;SDS011;25545;48.854;9.292;2022-08-03T11:44:58;1.67;;;1.58;;
39872;SDS011;25545;48.854;9.292;2022-08-03T11:47:42;1.60;;;1.50;;
39872;SDS011;25545;48.854;9.292;2022-08-03T11:50:17;2.58;;;1.52;;
39872;SDS011;25545;48.854;9.292;2022-08-03T11:52:49;1.80;;;1.60;;
39872;SDS011;25545;48.854;9.292;2022-08-03T11:55:17;2.58;;;1.55;;
39872;SDS011;25545;48.854;9.292;2022-08-03T12:01:03;3.53;;;1.83;;
39872;SDS011;25545;48.854;9.292;2022-08-03T12:06:29;8.23;;;2.10;;
39872;SDS011;25545;48.854;9.292;2022-08-03T12:08:56;3.05;;;1.67;;
39872;SDS011;25545;48.854;9.292;2022-08-03T12:11:22;5.72;;;1.83;;
39872;SDS011;25545;48.854;9.292;2022-08-03T12:13:49;1.80;;;1.60;;
39872;SDS011;25545;48.854;9.292;2022-08-03T12:16:36;2.38;;;1.63;;
39872;SDS011;25545;48.854;9.292;2022-08-03T12:19:03;3.80;;;2.03;;
39872;SDS011;25545;48.854;9.292;2022-08-03T12:21:31;2.20;;;1.65;;
39872;SDS011;25545;48.854;9.292;2022-08-03T12:23:59;4.20;;;1.40;;
39872;SDS011;25545;48.854;9.292;2022-08-03T12:26:27;3.88;;;1.90;;
39872;SDS011;25545;48.854;9.292;2022-08-03T12:28:55;4.30;;;1.55;;
39872;SDS011;25545;48.854;9.292;2022-08-03T12:31:22;3.08;;;1.80;;
39872;SDS011;25545;48.854;9.292;2022-08-03T12:33:54;2.00;;;1.65;;
39872;SDS011;25545;48.854;9.292;2022-08-03T12:36:21;6.28;;;1.70;;
39872;SDS011;25545;48.854;9.292;2022-08-03T12:38:54;4.53;;;1.50;;
39872;SDS011;25545;48.854;9.292;2022-08-03T12:41:26;3.10;;;1.67;;
39872;SDS011;25545;48.854;9.292;2022-08-03T12:43:56;2.25;;;1.40;;
39872;SDS011;25545;48.854;9.292;2022-08-03T12:46:29;3.75;;;1.80;;
39872;SDS011;25545;48.854;9.292;2022-08-03T12:49:04;9.55;;;1.80;;
39872;SDS011;25545;48.854;9.292;2022-08-03T12:56:17;2.40;;;1.58;;
39872;SDS011;25545;48.854;9.292;2022-08-03T12:59:58;2.78;;;1.63;;
39872;SDS011;25545;48.854;9.292;2022-08-03T13:03:00;1.70;;;1.20;;
39872;SDS011;25545;48.854;9.292;2022-08-03T13:05:49;1.30;;;1.20;;
39872;SDS011;25545;48.854;9.292;2022-08-03T13:08:16;1.92;;;1.70;;
39872;SDS011;25545;48.854;9.292;2022-08-03T13:10:47;4.40;;;1.55;;
39872;SDS011;25545;48.854;9.292;2022-08-03T13:13:14;1.67;;;1.45;;
39872;SDS011;25545;48.854;9.292;2022-08-03T13:15:42;1.75;;;1.40;;
39872;SDS011;25545;48.854;9.292;2022-08-03T13:18:13;2.25;;;1.40;;
39872;SDS011;25545;48.854;9.292;2022-08-03T13:20:42;3.22;;;1.50;;
39872;SDS011;25545;48.854;9.292;2022-08-03T13:23:09;1.73;;;1.30;;
39872;SDS011;25545;48.854;9.292;2022-08-03T13:25:48;3.55;;;1.80;;
39872;SDS011;25545;48.854;9.292;2022-08-03T13:28:21;3.33;;;1.60;;
39872;SDS011;25545;48.854;9.292;2022-08-03T13:30:48;4.55;;;1.52;;
39872;SDS011;25545;48.854;9.292;2022-08-03T13:33:15;2.22;;;1.52;;
39872;SDS011;25545;48.854;9.292;2022-08-03T13:35:42;4.43;;;1.42;;
39872;SDS011;25545;48.854;9.292;2022-08-03T13:38:09;2.85;;;1.60;;
39872;SDS011;25545;48.854;9.292;2022-08-03T13:40:35;3.90;;;1.67;;
39872;SDS011;25545;48.854;9.292;2022-08-03T13:43:07;1.70;;;1.35;;
39872;SDS011;25545;48.854;9.292;2022-08-03T13:45:34;1.42;;;1.33;;
39872;SDS011;25545;48.854;9.292;2022-08-03T13:48:00;3.42;;;1.50;;
39872;SDS011;25545;48.854;9.292;2022-08-03T13:50:27;1.30;;;1.20;;
39872;SDS011;25545;48.854;9.292;2022-08-03T13:52:55;3.65;;;1.52;;
39872;SDS011;25545;48.854;9.292;2022-08-03T13:55:22;31.38;;;3.80;;
39872;SDS011;25545;48.854;9.292;2022-08-03T13:57:49;11.23;;;2.10;;
39872;SDS011;25545;48.854;9.292;2022-08-03T14:00:32;1.60;;;1.23;;
39872;SDS011;25545;48.854;9.292;2022-08-03T14:03:00;2.25;;;1.52;;
39872;SDS011;25545;48.854;9.292;2022-08-03T14:05:38;5.15;;;1.83;;
39872;SDS011;25545;48.854;9.292;2022-08-03T14:08:05;3.72;;;1.42;;
39872;SDS011;25545;48.854;9.292;2022-08-03T14:10:33;4.30;;;1.48;;
39872;SDS011;25545;48.854;9.292;2022-08-03T14:13:01;2.00;;;1.20;;
39872;SDS011;25545;48.854;9.292;2022-08-03T14:15:36;3.55;;;1.60;;
39872;SDS011;25545;48.854;9.292;2022-08-03T14:18:19;2.20;;;1.60;;
39872;SDS011;25545;48.854;9.292;2022-08-03T14:21:27;1.58;;;1.48;;
39872;SDS011;25545;48.854;9.292;2022-08-03T14:23:57;3.42;;;1.80;;
39872;SDS011;25545;48.854;9.292;2022-08-03T14:26:23;2.97;;;1.65;;
39872;SDS011;25545;48.854;9.292;2022-08-03T14:28:50;5.38;;;2.08;;
39872;SDS011;25545;48.854;9.292;2022-08-03T14:31:17;3.45;;;1.60;;
39872;SDS011;25545;48.854;9.292;2022-08-03T14:34:04;3.92;;;1.85;;
39872;SDS011;25545;48.854;9.292;2022-08-03T14:36:30;3.70;;;1.25;;
39872;SDS011;25545;48.854;9.292;2022-08-03T14:38:57;1.58;;;1.40;;
39872;SDS011;25545;48.854;9.292;2022-08-03T14:41:27;4.65;;;1.30;;
39872;SDS011;25545;48.854;9.292;2022-08-03T14:43:54;3.03;;;1.63;;
39872;SDS011;25545;48.854;9.292;2022-08-03T14:46:27;3.28;;;1.23;;
39872;SDS011;25545;48.854;9.292;2022-08-03T14:50:19;6.20;;;2.42;;
39872;SDS011;25545;48.854;9.292;2022-08-03T14:53:38;1.30;;;1.20;;
39872;SDS011;25545;48.854;9.292;2022-08-03T14:56:07;1.60;;;1.20;;
39872;SDS011;25545;48.854;9.292;2022-08-03T14:58:36;2.63;;;1.63;;
39872;SDS011;25545;48.854;9.292;2022-08-03T15:01:03;1.35;;;1.25;;
39872;SDS011;25545;48.854;9.292;2022-08-03T15:03:50;1.50;;;1.40;;
39872;SDS011;25545;48.854;9.292;2022-08-03T15:06:17;1.33;;;1.17;;
39872;SDS011;25545;48.854;9.292;2022-08-03T15:08:43;1.23;;;1.13;;
39872;SDS011;25545;48.854;9.292;2022-08-03T15:11:31;2.67;;;1.30;;
39872;SDS011;25545;48.854;9.292;2022-08-03T15:13:57;1.23;;;1.13;;
39872;SDS011;25545;48.854;9.292;2022-08-03T15:16:24;2.92;;;0.90;;
39872;SDS011;25545;48.854;9.292;2022-08-03T15:18:55;1.20;;;1.05;;
39872;SDS011;25545;48.854;9.292;2022-08-03T15:21:22;1.38;;;1.27;;
39872;SDS011;25545;48.854;9.292;2022-08-03T15:24:09;2.00;;;1.48;;
39872;SDS011;25545;48.854;9.292;2022-08-03T15:29:38;1.45;;;1.30;;
39872;SDS011;25545;48.854;9.292;2022-08-03T15:32:32;2.35;;;1.38;;
39872;SDS011;25545;48.854;9.292;2022-08-03T15:35:15;1.40;;;1.30;;
39872;SDS011;25545;48.854;9.292;2022-08-03T15:37:41;1.10;;;1.00;;
39872;SDS011;25545;48.854;9.292;2022-08-03T15:47:49;2.03;;;1.50;;
39872;SDS011;25545;48.854;9.292;2022-08-03T15:50:16;2.42;;;1.08;;
39872;SDS011;25545;48.854;9.292;2022-08-03T15:59:43;1.20;;;1.10;;
39872;SDS011;25545;48.854;9.292;2022-08-03T16:02:10;2.40;;;1.30;;
39872;SDS011;25545;48.854;9.292;2022-08-03T16:04:37;2.15;;;1.23;;
39872;SDS011;25545;48.854;9.292;2022-08-03T16:07:03;14.57;;;2.08;;
39872;SDS011;25545;48.854;9.292;2022-08-03T16:09:30;1.98;;;1.08;;
39872;SDS011;25545;48.854;9.292;2022-08-03T16:12:09;6.22;;;1.40;;
39872;SDS011;25545;48.854;9.292;2022-08-03T16:14:42;1.00;;;1.00;;
39872;SDS011;25545;48.854;9.292;2022-08-03T16:17:18;1.15;;;1.10;;
39872;SDS011;25545;48.854;9.292;2022-08-03T16:19:46;1.15;;;1.05;;
39872;SDS011;25545;48.854;9.292;2022-08-03T16:22:12;2.70;;;1.02;;
39872;SDS011;25545;48.854;9.292;2022-08-03T16:24:40;1.25;;;1.10;;
39872;SDS011;25545;48.854;9.292;2022-08-03T16:27:06;1.58;;;1.00;;